Time;durP1;ratioP1;P1;durP2;ratioP2;P2;SDS_P1;SDS_P2;PMS_P1;PMS_P2;Temp;Humidity;BMP_temperature;BMP_pressure;BME280_temperature;BME280_humidity;BME280_pressure;Samples;Min_cycle;Max_cycle;Signal;HPM_P1;HPM_P2
2023/08/23 00:00:00;;;;;;;10.27;9.27;;;;;;;23.57;100.00;96568.19;5008849;28;102038;-77
2023/08/23 00:02:28;;;;;;;10.40;9.17;;;;;;;23.64;100.00;96563.00;5008997;28;105344;-77
2023/08/23 00:04:54;;;;;;;11.17;10.17;;;;;;;23.71;100.00;96565.22;5009531;28;102792;-77
2023/08/23 00:07:21;;;;;;;10.33;9.43;;;;;;;23.63;100.00;96568.75;5011117;28;102242;-77
2023/08/23 00:09:48;;;;;;;10.10;9.30;;;;;;;23.52;100.00;96571.06;5007934;28;105391;-77
2023/08/23 00:12:16;;;;;;;10.70;9.70;;;;;;;23.48;100.00;96572.84;5010016;28;102183;-77
2023/08/23 00:14:43;;;;;;;10.13;9.23;;;;;;;23.52;100.00;96567.56;5008526;28;105309;-74
2023/08/23 00:17:11;;;;;;;11.37;10.10;;;;;;;23.59;100.00;96573.28;5008058;28;105696;-74
2023/08/23 00:19:38;;;;;;;12.10;11.00;;;;;;;23.60;100.00;96564.00;5007383;28;102072;-74
2023/08/23 00:22:05;;;;;;;10.20;9.40;;;;;;;23.47;100.00;96562.31;5008986;28;103325;-74
2023/08/23 00:24:32;;;;;;;9.53;8.73;;;;;;;23.42;100.00;96562.50;5008651;28;105643;-74
2023/08/23 00:26:59;;;;;;;9.70;9.00;;;;;;;23.30;100.00;96571.34;5009969;28;101835;-74
2023/08/23 00:29:26;;;;;;;10.90;9.87;;;;;;;23.26;100.00;96569.63;5011216;28;104821;-74
2023/08/23 00:31:53;;;;;;;11.53;10.33;;;;;;;23.14;100.00;96561.31;5008313;28;102071;-74
2023/08/23 00:34:21;;;;;;;10.03;9.13;;;;;;;22.94;100.00;96568.25;5007253;28;105280;-74
2023/08/23 00:36:48;;;;;;;11.83;8.93;;;;;;;22.77;100.00;96570.25;5007717;28;105203;-74
2023/08/23 00:39:15;;;;;;;11.60;8.67;;;;;;;22.85;100.00;96570.22;5008281;28;102813;-74
2023/08/23 00:41:43;;;;;;;10.57;9.63;;;;;;;22.91;100.00;96563.50;5008325;28;105517;-78
2023/08/23 00:44:10;;;;;;;10.10;9.20;;;;;;;22.97;100.00;96569.53;5007749;28;105769;-78
2023/08/23 00:46:37;;;;;;;10.90;10.00;;;;;;;22.96;100.00;96566.03;5008094;28;101956;-76
2023/08/23 00:49:04;;;;;;;10.20;9.30;;;;;;;23.00;100.00;96566.19;5007247;28;105291;-76
2023/08/23 00:51:34;;;;;;;10.80;9.77;;;;;;;22.81;100.00;96553.00;5010736;28;106255;-76
2023/08/23 00:54:02;;;;;;;10.73;9.83;;;;;;;22.65;100.00;96561.97;5008164;28;104236;-76
2023/08/23 00:56:29;;;;;;;10.43;9.53;;;;;;;22.80;100.00;96564.97;5007541;28;105788;-77
2023/08/23 00:58:58;;;;;;;10.00;9.20;;;;;;;22.83;100.00;96552.69;5008138;28;101993;-77
2023/08/23 01:01:26;;;;;;;10.57;9.57;;;;;;;22.86;100.00;96562.88;5008005;28;105362;-77
2023/08/23 01:03:57;;;;;;;10.70;9.63;;;;;;;22.90;100.00;96561.09;5007322;28;105757;-76
2023/08/23 01:06:36;;;;;;;10.60;9.63;;;;;;;22.91;100.00;96557.25;5008043;28;102049;-76
2023/08/23 01:09:14;;;;;;;10.33;9.43;;;;;;;22.91;100.00;96557.25;5011350;28;104866;-76
2023/08/23 01:11:49;;;;;;;10.67;9.77;;;;;;;22.87;100.00;96565.25;5010837;28;105077;-76
2023/08/23 01:14:25;;;;;;;10.53;9.60;;;;;;;22.69;100.00;96560.19;5015025;28;101946;-76
2023/08/23 01:16:52;;;;;;;10.63;9.67;;;;;;;22.65;100.00;96553.81;5010894;28;105857;-76
2023/08/23 01:19:37;;;;;;;10.27;9.17;;;;;;;22.58;100.00;96550.81;5011308;28;102032;-76
2023/08/23 01:22:09;;;;;;;10.40;9.40;;;;;;;22.66;100.00;96548.09;5011476;28;105038;-76
2023/08/23 01:24:38;;;;;;;10.00;9.23;;;;;;;22.50;100.00;96557.06;5010478;28;105432;-77
2023/08/23 01:27:05;;;;;;;11.37;10.10;;;;;;;22.56;100.00;96547.66;5011324;28;102004;-77
2023/08/23 01:29:32;;;;;;;9.53;8.73;;;;;;;22.59;100.00;96549.69;5010314;28;105236;-77
2023/08/23 01:32:11;;;;;;;9.60;8.80;;;;;;;22.58;100.00;96539.97;5010316;28;104118;-77
2023/08/23 01:34:44;;;;;;;9.80;8.93;;;;;;;22.62;100.00;96541.72;5011098;28;101988;-77
2023/08/23 01:37:12;;;;;;;9.73;8.90;;;;;;;22.47;100.00;96533.31;5013980;28;105115;-77
2023/08/23 01:39:41;;;;;;;9.87;8.97;;;;;;;22.22;100.00;96534.91;5011238;28;102020;-77
2023/08/23 01:42:08;;;;;;;9.50;8.53;;;;;;;22.11;100.00;96532.81;5011022;28;105524;-77
2023/08/23 01:44:36;;;;;;;9.73;8.83;;;;;;;22.18;100.00;96533.16;5010367;28;105085;-76
2023/08/23 01:47:02;;;;;;;10.70;9.60;;;;;;;22.05;100.00;96544.94;5010457;28;102109;-78
2023/08/23 01:49:29;;;;;;;10.53;9.73;;;;;;;22.11;100.00;96554.50;5010826;28;105012;-77
2023/08/23 01:51:56;;;;;;;11.50;10.50;;;;;;;22.20;100.00;96563.44;5010162;28;105554;-77
2023/08/23 01:54:24;;;;;;;10.00;9.13;;;;;;;22.16;100.00;96578.72;5009849;28;102276;-77
2023/08/23 01:56:52;;;;;;;11.03;10.10;;;;;;;22.11;100.00;96582.41;5013647;28;105612;-77
2023/08/23 01:59:19;;;;;;;11.60;10.60;;;;;;;22.16;100.00;96587.66;5009783;28;101987;-77
2023/08/23 02:01:46;;;;;;;12.37;11.13;;;;;;;22.12;100.00;96585.91;5009445;28;105375;-77
2023/08/23 02:04:14;;;;;;;11.87;10.50;;;;;;;22.11;100.00;96587.81;5009246;28;105471;-77
2023/08/23 02:06:41;;;;;;;12.23;11.03;;;;;;;22.11;100.00;96581.59;5009505;28;102026;-77
2023/08/23 02:09:08;;;;;;;13.80;10.03;;;;;;;22.07;100.00;96586.06;5009671;28;104985;-77
2023/08/23 02:11:36;;;;;;;12.27;11.10;;;;;;;22.03;100.00;96588.63;5008831;28;105673;-77
2023/08/23 02:14:05;;;;;;;12.03;10.93;;;;;;;22.11;100.00;96582.41;5009547;28;101978;-80
2023/08/23 02:16:32;;;;;;;12.43;11.10;;;;;;;22.05;100.00;96582.84;5009416;28;104922;-81
2023/08/23 02:18:58;;;;;;;12.23;11.13;;;;;;;22.03;100.00;96575.06;5012370;28;105518;-76
2023/08/23 02:21:25;;;;;;;12.10;10.77;;;;;;;22.17;100.00;96566.78;5009403;28;105549;-76
2023/08/23 02:23:52;;;;;;;11.73;10.53;;;;;;;22.24;100.00;96557.03;5008629;28;104508;-76
2023/08/23 02:26:19;;;;;;;11.97;10.73;;;;;;;22.30;100.00;96557.69;5009178;28;101960;-76
2023/08/23 02:28:46;;;;;;;11.80;10.57;;;;;;;22.35;100.00;96557.53;5009277;28;105024;-77
2023/08/23 02:31:14;;;;;;;11.93;10.60;;;;;;;22.28;100.00;96558.00;5008504;28;105316;-77
2023/08/23 02:33:41;;;;;;;11.47;10.37;;;;;;;22.32;100.00;96560.84;5009370;28;102092;-77
2023/08/23 02:36:08;;;;;;;11.90;10.80;;;;;;;22.22;100.00;96567.41;5009184;28;104410;-77
2023/08/23 02:38:35;;;;;;;11.37;10.33;;;;;;;22.28;100.00;96578.91;5008677;28;103968;-76
2023/08/23 02:41:02;;;;;;;10.83;9.83;;;;;;;22.32;100.00;96577.13;5012424;28;102168;-76
2023/08/23 02:43:29;;;;;;;10.63;9.73;;;;;;;22.31;100.00;96592.59;5009459;28;105929;-76
2023/08/23 02:45:56;;;;;;;11.47;10.43;;;;;;;22.32;100.00;96587.97;5010070;28;101926;-76
2023/08/23 02:48:25;;;;;;;11.30;10.27;;;;;;;22.34;100.00;96593.88;5008734;28;105432;-76
2023/08/23 02:50:51;;;;;;;10.40;9.40;;;;;;;22.43;100.00;96584.63;5008386;28;106224;-76
2023/08/23 02:53:19;;;;;;;10.50;9.50;;;;;;;22.30;100.00;96576.66;5009786;28;101950;-76
2023/08/23 02:55:46;;;;;;;11.90;10.50;;;;;;;22.24;100.00;96580.66;5009760;28;105029;-76
2023/08/23 02:58:13;;;;;;;11.67;10.50;;;;;;;22.14;100.00;96576.34;5009699;28;102773;-76
2023/08/23 03:00:40;;;;;;;11.87;10.60;;;;;;;22.07;100.00;96577.94;5008873;28;102218;-78
2023/08/23 03:03:08;;;;;;;11.47;10.23;;;;;;;22.11;100.00;96576.97;5011837;28;105026;-78
2023/08/23 03:05:36;;;;;;;11.03;10.03;;;;;;;22.03;100.00;96568.84;5008840;28;102141;-78
2023/08/23 03:08:03;;;;;;;11.50;10.43;;;;;;;22.00;100.00;96566.75;5009950;28;101891;-78
2023/08/23 03:10:30;;;;;;;11.60;10.53;;;;;;;22.01;100.00;96576.50;5008208;28;105375;-78
2023/08/23 03:12:57;;;;;;;11.93;10.73;;;;;;;21.79;100.00;96582.06;5008319;28;102224;-79
2023/08/23 03:15:24;;;;;;;11.47;10.27;;;;;;;21.82;100.00;96586.81;5008630;28;105020;-78
2023/08/23 03:17:51;;;;;;;11.20;10.20;;;;;;;21.87;100.00;96582.06;5007881;28;105463;-77
2023/08/23 03:20:18;;;;;;;12.17;10.70;;;;;;;21.99;100.00;96578.72;5008522;28;102052;-77
2023/08/23 03:22:46;;;;;;;11.77;10.63;;;;;;;22.17;100.00;96577.63;5008573;28;105451;-77
2023/08/23 03:25:14;;;;;;;10.93;10.03;;;;;;;22.17;100.00;96580.34;5011296;28;105086;-77
2023/08/23 03:27:41;;;;;;;10.97;9.87;;;;;;;22.12;100.00;96583.19;5008240;28;105428;-77
2023/08/23 03:30:09;;;;;;;11.83;10.73;;;;;;;22.07;100.00;96575.22;5008182;28;105888;-77
2023/08/23 03:32:37;;;;;;;10.93;9.97;;;;;;;22.23;100.00;96584.47;5008373;28;102381;-77
2023/08/23 03:35:04;;;;;;;10.80;9.90;;;;;;;22.19;100.00;96583.50;5008181;28;105627;-78
2023/08/23 03:37:31;;;;;;;11.47;10.37;;;;;;;22.15;100.00;96588.78;5008519;28;105319;-78
2023/08/23 03:40:00;;;;;;;11.43;10.43;;;;;;;22.18;100.00;96598.19;5008170;28;102082;-78
2023/08/23 03:42:28;;;;;;;10.67;9.63;;;;;;;22.14;100.00;96591.78;5007952;28;105193;-76
2023/08/23 03:44:55;;;;;;;11.00;10.03;;;;;;;21.92;100.00;96600.06;5008523;28;105261;-76
2023/08/23 03:47:22;;;;;;;10.00;9.20;;;;;;;21.95;100.00;96600.22;5010858;28;101948;-77
2023/08/23 03:49:49;;;;;;;10.30;9.50;;;;;;;21.87;100.00;96597.50;5008316;28;106036;-77
2023/08/23 03:52:16;;;;;;;10.87;9.97;;;;;;;21.81;100.00;96598.78;5008999;28;101904;-76
2023/08/23 03:54:43;;;;;;;11.13;10.03;;;;;;;21.63;100.00;96613.38;5008085;28;105568;-76
2023/08/23 03:57:11;;;;;;;10.77;9.80;;;;;;;21.69;100.00;96612.91;5007310;28;105311;-76
2023/08/23 03:59:38;;;;;;;10.63;9.60;;;;;;;21.70;100.00;96611.78;5008899;28;102206;-76
2023/08/23 04:02:05;;;;;;;11.80;10.80;;;;;;;21.67;100.00;96614.31;5008839;28;105466;-76
2023/08/23 04:04:32;;;;;;;11.87;10.83;;;;;;;21.64;100.00;96626.56;5008574;28;102745;-78
2023/08/23 04:06:59;;;;;;;12.47;11.27;;;;;;;21.74;100.00;96628.22;5011461;28;102124;-76
2023/08/23 04:09:26;;;;;;;11.80;10.70;;;;;;;21.80;100.00;96626.97;5008073;28;105732;-76
2023/08/23 04:11:53;;;;;;;10.93;9.87;;;;;;;21.95;100.00;96627.31;5008461;28;101981;-76
2023/08/23 04:14:21;;;;;;;10.87;9.67;;;;;;;22.08;100.00;96629.06;5009419;28;105399;-76
2023/08/23 04:16:48;;;;;;;11.10;10.07;;;;;;;22.34;100.00;96629.88;5008703;28;104328;-76
2023/08/23 04:19:15;;;;;;;13.33;11.57;;;;;;;22.28;100.00;96620.31;5008344;28;101949;-76
2023/08/23 04:21:46;;;;;;;11.60;10.50;;;;;;;22.43;100.00;96629.88;5008461;28;105103;-76
2023/08/23 04:24:13;;;;;;;13.50;11.27;;;;;;;22.17;100.00;96620.97;5007647;28;105155;-75
2023/08/23 04:26:40;;;;;;;11.20;10.20;;;;;;;22.25;100.00;96620.97;5008132;28;102090;-76
2023/08/23 04:29:06;;;;;;;12.00;10.80;;;;;;;22.17;100.00;96607.44;5011168;28;105391;-76
2023/08/23 04:31:35;;;;;;;12.23;11.03;;;;;;;22.15;100.00;96615.06;5007988;28;101974;-75
2023/08/23 04:34:11;;;;;;;11.70;10.67;;;;;;;22.28;100.00;96619.53;5008303;28;105257;-75
2023/08/23 04:36:39;;;;;;;12.33;11.27;;;;;;;21.71;100.00;96626.13;5007612;28;105797;-78
2023/08/23 04:39:06;;;;;;;14.83;12.63;;;;;;;21.11;100.00;96639.41;5008254;28;102210;-78
2023/08/23 04:41:34;;;;;;;13.40;11.93;;;;;;;20.76;100.00;96653.03;5008094;28;104110;-77
2023/08/23 04:44:01;;;;;;;13.00;11.63;;;;;;;20.98;100.00;96648.41;5010691;28;104982;-78
2023/08/23 04:46:28;;;;;;;13.33;12.10;;;;;;;21.00;100.00;96653.50;5011509;28;102008;-73
2023/08/23 04:48:57;;;;;;;15.03;13.20;;;;;;;20.85;100.00;96659.25;5011661;28;105122;-75
2023/08/23 04:51:24;;;;;;;14.63;13.20;;;;;;;20.80;100.00;96662.09;5014627;28;105502;-76
2023/08/23 04:53:50;;;;;;;15.20;13.63;;;;;;;20.89;100.00;96660.28;5011407;28;105715;-77
2023/08/23 04:56:17;;;;;;;13.17;11.97;;;;;;;21.20;100.00;96656.47;5010869;28;104262;-85
2023/08/23 04:58:44;;;;;;;14.57;12.97;;;;;;;21.14;100.00;96654.22;5011575;28;102000;-82
2023/08/23 05:01:11;;;;;;;14.47;13.17;;;;;;;21.10;100.00;96659.44;5011470;28;105453;-78
2023/08/23 05:03:44;;;;;;;13.57;12.37;;;;;;;21.16;100.00;96652.00;5010852;28;105429;-77
2023/08/23 05:06:13;;;;;;;14.77;13.37;;;;;;;20.99;100.00;96651.91;5011247;28;101928;-76
2023/08/23 05:08:41;;;;;;;14.83;13.20;;;;;;;21.03;100.00;96652.91;5011189;28;104048;-77
2023/08/23 05:11:13;;;;;;;14.07;12.57;;;;;;;21.26;100.00;96660.63;5010688;28;105233;-77
2023/08/23 05:13:40;;;;;;;14.73;12.83;;;;;;;21.46;100.00;96656.59;5014383;28;101910;-77
2023/08/23 05:16:07;;;;;;;13.57;12.37;;;;;;;21.66;100.00;96643.31;5010656;28;105199;-77
2023/08/23 05:18:35;;;;;;;13.80;12.37;;;;;;;21.95;100.00;96640.03;5011016;28;101834;-77
2023/08/23 05:21:02;;;;;;;13.00;11.90;;;;;;;22.03;100.00;96641.97;5012210;28;102578;-77
2023/08/23 05:23:31;;;;;;;13.23;12.03;;;;;;;21.89;100.00;96633.97;5010029;28;105551;-77
2023/08/23 05:25:59;;;;;;;13.50;12.07;;;;;;;21.91;100.00;96631.75;5010942;28;102109;-77
2023/08/23 05:28:28;;;;;;;13.23;12.03;;;;;;;22.22;100.00;96642.47;5010939;28;104977;-77
2023/08/23 05:30:55;;;;;;;12.93;11.63;;;;;;;22.41;100.00;96640.25;5010354;28;105544;-77
2023/08/23 05:33:28;;;;;;;12.17;10.97;;;;;;;22.66;100.00;96642.19;5010587;28;101884;-77
2023/08/23 05:35:56;;;;;;;13.10;11.87;;;;;;;22.67;100.00;96654.63;5013856;28;106018;-77
2023/08/23 05:38:23;;;;;;;12.80;11.50;;;;;;;22.58;100.00;96651.13;5011977;28;101897;-77
2023/08/23 05:40:53;;;;;;;13.53;12.13;;;;;;;22.66;100.00;96658.47;5010837;28;104881;-77
2023/08/23 05:43:20;;;;;;;12.47;11.37;;;;;;;22.76;100.00;96649.97;5010139;28;105154;-77
2023/08/23 05:45:47;;;;;;;12.53;11.30;;;;;;;22.67;100.00;96647.28;5010562;28;102200;-77
2023/08/23 05:48:14;;;;;;;13.77;11.17;;;;;;;22.54;100.00;96644.72;5010414;28;104800;-77
2023/08/23 05:50:41;;;;;;;13.27;11.97;;;;;;;22.36;100.00;96643.13;5010056;28;105573;-77
2023/08/23 05:53:11;;;;;;;11.93;10.77;;;;;;;22.67;100.00;96632.94;5009849;28;102046;-77
2023/08/23 05:55:38;;;;;;;12.80;11.57;;;;;;;23.00;100.00;96642.13;5010298;28;105640;-77
2023/08/23 05:58:06;;;;;;;12.00;10.80;;;;;;;23.17;100.00;96636.66;5012901;28;102036;-77
2023/08/23 06:00:33;;;;;;;12.13;10.33;;;;;;;23.42;100.00;96623.03;5010292;28;105360;-77
2023/08/23 06:03:00;;;;;;;11.77;10.57;;;;;;;23.55;100.00;96619.28;5009736;28;106210;-77
2023/08/23 06:05:27;;;;;;;11.50;10.17;;;;;;;23.63;100.00;96620.34;5010255;28;102069;-77
2023/08/23 06:07:54;;;;;;;12.50;11.20;;;;;;;23.59;100.00;96627.59;5010250;28;105610;-77
2023/08/23 06:10:30;;;;;;;11.27;10.20;;;;;;;23.62;100.00;96630.44;5010947;28;103113;-77
2023/08/23 06:12:58;;;;;;;11.07;10.00;;;;;;;23.40;100.00;96629.91;5006588;28;102541;-80
2023/08/23 06:15:26;;;;;;;11.83;10.73;;;;;;;23.15;100.00;96625.34;5005555;28;105426;-78
2023/08/23 06:17:56;;;;;;;12.43;10.77;;;;;;;23.08;100.00;96622.31;5012662;28;105104;-77
2023/08/23 06:20:23;;;;;;;11.27;10.17;;;;;;;23.26;100.00;96618.47;5010390;28;103626;-77
2023/08/23 06:22:53;;;;;;;11.63;10.53;;;;;;;23.15;100.00;96622.63;5009480;28;105524;-80
2023/08/23 06:25:25;;;;;;;12.90;10.47;;;;;;;23.27;100.00;96622.78;5010215;28;101941;-77
2023/08/23 06:27:55;;;;;;;12.33;11.13;;;;;;;23.08;100.00;96622.31;5011247;28;102923;-77
2023/08/23 06:30:30;;;;;;;12.37;10.10;;;;;;;23.09;100.00;96632.03;5010529;28;102901;-77
2023/08/23 06:33:00;;;;;;;12.00;10.80;;;;;;;22.96;100.00;96635.75;5009919;28;102201;-79
2023/08/23 06:35:30;;;;;;;12.00;10.90;;;;;;;23.28;100.00;96637.94;5009827;28;106031;-79
2023/08/23 06:38:03;;;;;;;11.57;10.40;;;;;;;23.60;100.00;96634.59;5009167;28;104986;-79
2023/08/23 06:40:33;;;;;;;11.93;10.73;;;;;;;23.73;100.00;96631.66;5013234;28;101995;-78
2023/08/23 06:43:09;;;;;;;12.27;11.00;;;;;;;23.68;100.00;96629.13;5010609;28;104181;-77
2023/08/23 06:45:40;;;;;;;11.40;10.30;;;;;;;23.92;100.00;96632.03;5009827;28;101964;-79
2023/08/23 06:48:07;;;;;;;10.90;9.83;;;;;;;24.12;100.00;96641.34;5009672;28;105505;-80
2023/08/23 06:50:36;;;;;;;11.07;10.10;;;;;;;24.20;100.00;96643.22;5010006;28;103971;-81
2023/08/23 06:53:03;;;;;;;10.70;9.70;;;;;;;24.27;100.00;96641.59;5009937;28;101979;-76
2023/08/23 06:55:30;;;;;;;10.23;9.43;;;;;;;24.46;100.00;96641.91;5010721;28;104105;-76
2023/08/23 06:57:57;;;;;;;12.23;11.00;;;;;;;24.49;100.00;96640.44;5010115;28;103971;-76
2023/08/23 07:00:24;;;;;;;10.67;9.67;;;;;;;24.60;100.00;96639.75;5009615;28;101908;-78
2023/08/23 07:02:52;;;;;;;11.87;10.40;;;;;;;24.92;100.00;96633.53;5013488;28;105415;-79
2023/08/23 07:05:19;;;;;;;10.77;9.77;;;;;;;25.00;100.00;96631.81;5008386;28;101999;-79
2023/08/23 07:07:47;;;;;;;10.60;9.50;;;;;;;25.15;100.00;96632.00;5011686;28;102605;-77
2023/08/23 07:10:13;;;;;;;10.03;9.23;;;;;;;25.23;100.00;96627.59;5009824;28;104423;-74
2023/08/23 07:12:45;;;;;;;9.50;8.70;;;;;;;25.24;100.00;96623.72;5010309;28;102047;-75
2023/08/23 07:15:17;;;;;;;9.80;8.80;;;;;;;25.15;100.00;96625.75;5011555;28;102705;-71
2023/08/23 07:18:05;;;;;;;11.27;8.70;;;;;;;25.41;100.00;96629.00;5009467;28;105161;-72
2023/08/23 07:20:35;;;;;;;8.90;8.10;;;;;;;25.73;100.00;96633.56;5008484;28;102210;-73
2023/08/23 07:23:07;;;;;;;9.40;8.60;;;;;;;25.42;100.00;96631.38;5043997;27;105256;-75
2023/08/23 07:25:48;;;;;;;9.60;8.67;;;;;;;25.50;100.00;96621.53;5013117;28;105629;-72
2023/08/23 07:28:16;;;;;;;8.53;7.83;;;;;;;25.71;100.00;96633.88;4949808;28;102314;-72
2023/08/23 07:30:46;;;;;;;12.00;8.77;;;;;;;25.63;100.00;96636.72;4949329;28;103079;-74
2023/08/23 07:33:14;;;;;;;10.03;9.03;;;;;;;25.63;100.00;96642.19;4932963;28;101984;-72
2023/08/23 07:35:41;;;;;;;9.37;8.57;;;;;;;25.62;100.00;96646.03;4933351;28;104902;-72
2023/08/23 07:38:08;;;;;;;9.60;8.60;;;;;;;26.01;100.00;96648.09;4932765;28;105555;-72
2023/08/23 07:40:37;;;;;;;8.87;7.97;;;;;;;26.46;100.00;96643.25;4933134;28;101956;-73
2023/08/23 07:43:04;;;;;;;9.97;8.50;;;;;;;26.12;100.00;96638.31;4933430;28;105594;-73
2023/08/23 07:45:31;;;;;;;12.30;8.03;;;;;;;26.30;100.00;96637.72;4932503;28;105793;-72
2023/08/23 07:47:58;;;;;;;14.60;8.30;;;;;;;26.67;100.00;96632.97;4936497;28;102003;-72
2023/08/23 07:50:27;;;;;;;10.67;9.13;;;;;;;26.75;100.00;96641.03;4932668;28;105327;-73
2023/08/23 07:52:55;;;;;;;10.87;8.73;;;;;;;26.46;100.00;96632.34;4933033;28;102358;-73
2023/08/23 07:55:23;;;;;;;12.27;9.40;;;;;;;26.54;100.00;96631.41;4933412;28;105382;-74
2023/08/23 07:57:50;;;;;;;12.13;8.77;;;;;;;26.68;100.00;96629.09;4932396;28;105834;-77
2023/08/23 08:00:18;;;;;;;9.03;8.23;;;;;;;26.76;100.00;96630.91;4921647;28;101968;-74
2023/08/23 08:02:45;;;;;;;10.87;8.53;;;;;;;26.76;100.00;96639.09;4913547;28;103799;-72
2023/08/23 08:05:12;;;;;;;9.13;7.87;;;;;;;26.99;100.00;96632.75;4939132;28;104289;-73
2023/08/23 08:07:40;;;;;;;9.13;7.57;;;;;;;26.74;100.00;96635.91;4996695;28;101815;-72
2023/08/23 08:10:08;;;;;;;8.53;7.50;;;;;;;27.22;100.00;96633.78;5010011;28;104828;-72
2023/08/23 08:12:35;;;;;;;8.67;7.00;;;;;;;27.57;100.00;96631.16;5010722;28;102002;-73
2023/08/23 08:15:05;;;;;;;6.90;6.30;;;;;;;27.75;100.00;96637.84;5009403;28;103016;-73
2023/08/23 08:17:33;;;;;;;8.17;7.37;;;;;;;27.35;100.00;96637.22;5008221;28;105313;-73
2023/08/23 08:20:04;;;;;;;8.63;7.90;;;;;;;27.15;100.00;96632.75;5009421;28;101988;-72
2023/08/23 08:22:32;;;;;;;9.60;8.37;;;;;;;27.25;100.00;96637.75;5009738;28;105449;-72
2023/08/23 08:25:00;;;;;;;8.80;7.53;;;;;;;27.78;100.00;96632.50;5010092;28;102732;-72
2023/08/23 08:27:28;;;;;;;8.43;7.63;;;;;;;27.96;100.00;96635.66;5009249;28;101905;-72
2023/08/23 08:29:55;;;;;;;8.93;7.30;;;;;;;28.38;100.00;96633.91;5012110;28;105331;-72
2023/08/23 08:32:22;;;;;;;7.70;7.00;;;;;;;28.50;100.00;96625.56;5008932;28;103293;-72
2023/08/23 08:34:49;;;;;;;8.13;7.33;;;;;;;28.71;100.00;96632.25;5009156;28;105714;-72
2023/08/23 08:37:18;;;;;;;8.27;7.47;;;;;;;28.29;100.00;96630.53;5008678;28;105476;-72
2023/08/23 08:39:45;;;;;;;9.03;8.10;;;;;;;28.59;100.00;96626.13;5009103;28;102017;-71
2023/08/23 08:42:14;;;;;;;8.83;7.70;;;;;;;28.99;100.00;96629.34;5008854;28;104176;-73
2023/08/23 08:44:41;;;;;;;8.20;6.97;;;;;;;29.03;100.00;96633.72;5008604;28;104272;-73
2023/08/23 08:47:08;;;;;;;7.47;6.83;;;;;;;28.99;100.00;96629.34;5042211;27;101908;-73
2023/08/23 08:49:35;;;;;;;8.23;7.53;;;;;;;29.05;100.00;96631.41;5008847;28;105100;-72
2023/08/23 08:52:05;;;;;;;7.53;6.80;;;;;;;29.47;100.00;96629.44;5012918;28;103491;-72
2023/08/23 08:54:34;;;;;;;7.38;6.78;;;;;;;29.57;100.00;96628.84;5008819;28;103681;-72
2023/08/23 08:57:02;;;;;;;7.95;7.13;;;;;;;29.49;100.00;96626.34;5008093;28;105157;-73
2023/08/23 08:59:30;;;;;;;7.53;6.82;;;;;;;28.70;100.00;96635.34;5008945;28;102013;-73
2023/08/23 09:01:58;;;;;;;7.07;6.47;;;;;;;29.09;100.00;96626.00;5008751;28;105496;-73
2023/08/23 09:04:25;;;;;;;7.15;6.45;;;;;;;29.27;100.00;96622.41;5009359;28;103154;-73
2023/08/23 09:06:54;;;;;;;6.32;5.72;;;;;;;29.35;100.00;96620.59;5008584;28;102360;-73
2023/08/23 09:09:21;;;;;;;6.88;6.32;;;;;;;29.24;100.00;96622.34;5008919;28;104949;-73
2023/08/23 09:11:48;;;;;;;8.95;6.43;;;;;;;29.44;100.00;96621.16;5007894;28;105437;-73
2023/08/23 09:14:16;;;;;;;7.50;6.50;;;;;;;29.63;100.00;96621.91;5011879;28;102003;-72
2023/08/23 09:16:47;;;;;;;7.28;6.63;;;;;;;29.52;100.00;96623.66;5007733;28;104527;-73
2023/08/23 09:19:14;;;;;;;8.60;6.70;;;;;;;29.63;100.00;96619.16;5008467;28;102056;-72
2023/08/23 09:21:44;;;;;;;7.30;6.60;;;;;;;29.66;100.00;96620.38;5008522;28;105350;-73
2023/08/23 09:24:12;;;;;;;7.55;6.85;;;;;;;29.43;100.00;96622.31;5008003;28;105375;-73
2023/08/23 09:26:40;;;;;;;7.28;6.60;;;;;;;29.90;100.00;96625.47;5008417;28;102082;-73
2023/08/23 09:29:07;;;;;;;9.52;6.60;;;;;;;29.95;100.00;96608.69;5010156;28;103985;-74
2023/08/23 09:31:34;;;;;;;6.95;6.30;;;;;;;30.02;100.00;96606.84;5011381;28;103842;-74
2023/08/23 09:34:03;;;;;;;7.32;6.60;;;;;;;30.11;100.00;96609.34;5011733;28;102036;-73
2023/08/23 09:36:39;;;;;;;6.45;5.93;;;;;;;29.89;100.00;96608.22;5014790;28;103654;-73
2023/08/23 09:39:09;;;;;;;6.43;5.88;;;;;;;29.92;100.00;96606.72;5012064;28;101907;-72
2023/08/23 09:41:39;;;;;;;6.68;5.95;;;;;;;29.85;100.00;96609.34;5011804;28;105261;-72
2023/08/23 09:44:07;;;;;;;6.60;6.00;;;;;;;30.13;100.00;96604.31;5012590;28;102936;-72
2023/08/23 09:46:36;;;;;;;6.97;6.30;;;;;;;29.61;100.00;96607.78;5011762;28;102011;-73
2023/08/23 09:49:06;;;;;;;7.00;6.40;;;;;;;29.66;100.00;96612.97;5011745;28;105341;-73
2023/08/23 09:51:36;;;;;;;6.13;5.70;;;;;;;30.57;100.00;96600.59;5010913;28;105606;-74
2023/08/23 09:54:12;;;;;;;6.40;5.85;;;;;;;30.82;100.00;96595.41;5011493;28;101929;-73
2023/08/23 09:56:42;;;;;;;7.10;6.40;;;;;;;31.13;100.00;96600.47;5011738;28;105215;-72
2023/08/23 09:59:10;;;;;;;6.70;5.97;;;;;;;31.30;100.00;96595.19;5048231;27;104411;-72
2023/08/23 10:01:37;;;;;;;7.88;5.85;;;;;;;31.46;100.00;96604.00;5045400;27;105422;-72
2023/08/23 10:04:07;;;;;;;8.43;6.07;;;;;;;31.77;100.00;96591.72;5010426;28;105581;-73
2023/08/23 10:06:36;;;;;;;6.93;6.20;;;;;;;31.28;100.00;96591.25;5011523;28;101858;-75
2023/08/23 10:09:04;;;;;;;8.07;5.90;;;;;;;31.22;100.00;96590.78;5011511;28;103934;-75
2023/08/23 10:11:33;;;;;;;7.68;5.90;;;;;;;31.50;100.00;96599.28;5010762;28;105104;-75
2023/08/23 10:14:03;;;;;;;5.72;5.22;;;;;;;31.90;100.00;96591.03;5012214;28;103297;-75
2023/08/23 10:16:30;;;;;;;6.43;5.80;;;;;;;32.09;100.00;96592.72;5024828;28;104932;-75
2023/08/23 10:18:58;;;;;;;9.20;5.55;;;;;;;32.09;100.00;96584.47;4993868;28;105811;-75
2023/08/23 10:21:28;;;;;;;6.30;5.50;;;;;;;31.66;100.00;96579.81;5001699;28;101787;-75
2023/08/23 10:23:54;;;;;;;5.60;5.10;;;;;;;31.69;100.00;96577.06;5010504;28;105042;-75
2023/08/23 10:26:22;;;;;;;6.28;5.57;;;;;;;31.71;100.00;96571.97;5010888;28;102173;-75
2023/08/23 10:28:52;;;;;;;5.95;5.35;;;;;;;32.08;100.00;96569.91;5012369;28;102544;-75
2023/08/23 10:31:27;;;;;;;5.50;5.03;;;;;;;32.15;99.36;96574.69;5010622;28;105061;-75
2023/08/23 10:33:55;;;;;;;6.13;5.53;;;;;;;32.46;100.00;96574.06;5010775;28;101976;-75
2023/08/23 10:36:25;;;;;;;7.50;5.68;;;;;;;32.43;100.00;96574.84;5010778;28;105609;-75
2023/08/23 10:38:54;;;;;;;5.43;4.88;;;;;;;32.51;100.00;96579.19;5010250;28;105625;-75
2023/08/23 10:41:23;;;;;;;5.00;4.47;;;;;;;31.89;100.00;96566.63;5013113;28;101965;-75
2023/08/23 10:43:49;;;;;;;5.43;4.93;;;;;;;31.45;100.00;96560.38;5009848;28;105125;-75
2023/08/23 10:46:18;;;;;;;7.68;4.70;;;;;;;32.08;100.00;96556.16;5010188;28;101957;-75
2023/08/23 10:48:45;;;;;;;5.10;4.70;;;;;;;32.50;100.00;96561.09;5010431;28;105196;-75
2023/08/23 10:51:13;;;;;;;5.72;5.10;;;;;;;32.89;100.00;96565.63;5010299;28;105671;-75
2023/08/23 10:53:41;;;;;;;8.55;5.18;;;;;;;32.48;100.00;96564.25;5010328;28;102000;-76
2023/08/23 10:56:10;;;;;;;5.10;4.57;;;;;;;32.32;93.90;96563.00;5010679;28;105251;-75
2023/08/23 10:58:37;;;;;;;9.13;4.30;;;;;;;32.26;97.73;96554.31;5009720;28;105132;-75
2023/08/23 11:01:05;;;;;;;4.90;4.43;;;;;;;32.44;94.34;96557.94;5010428;28;102371;-75
2023/08/23 11:03:32;;;;;;;5.85;3.97;;;;;;;31.80;96.98;96566.19;5013221;28;105099;-75
2023/08/23 11:06:00;;;;;;;6.32;4.55;;;;;;;32.12;100.00;96559.72;5011320;28;101966;-75
2023/08/23 11:08:27;;;;;;;4.93;4.60;;;;;;;32.41;89.88;96566.19;5009837;28;105007;-75
2023/08/23 11:10:54;;;;;;;4.88;3.80;;;;;;;32.78;93.32;96561.25;5009939;28;104992;-75
2023/08/23 11:13:22;;;;;;;5.85;4.32;;;;;;;32.86;90.97;96560.88;5009278;28;102215;-75